createdAt,value
2017-09-26T00:02:15.614Z,99.90
2017-09-26T00:04:43.190Z,99.90
2017-09-26T00:07:11.483Z,99.90
2017-09-26T00:09:39.935Z,99.90
2017-09-26T00:12:08.483Z,99.90
2017-09-26T00:14:36.087Z,99.90
2017-09-26T00:17:05.159Z,99.90
2017-09-26T00:19:32.739Z,99.90
2017-09-26T00:22:00.402Z,99.90
2017-09-26T00:24:28.063Z,99.90
2017-09-26T00:26:55.832Z,99.90
2017-09-26T00:29:24.259Z,99.90
2017-09-26T00:31:51.907Z,99.90
2017-09-26T00:34:20.288Z,99.90
2017-09-26T00:36:47.846Z,99.90
2017-09-26T00:39:15.479Z,99.90
2017-09-26T00:41:44.671Z,99.90
2017-09-26T00:44:12.418Z,99.90
2017-09-26T00:46:40.090Z,99.90
2017-09-26T00:49:07.691Z,99.90
2017-09-26T00:51:36.018Z,99.90
2017-09-26T00:54:03.591Z,99.90
2017-09-26T00:56:31.159Z,99.90
2017-09-26T00:58:58.734Z,99.90
2017-09-26T01:01:27.071Z,99.90
2017-09-26T01:03:55.528Z,99.90
2017-09-26T01:06:23.883Z,99.90
2017-09-26T01:08:51.463Z,99.90
2017-09-26T01:11:19.018Z,99.90
2017-09-26T01:13:46.614Z,99.90
2017-09-26T01:16:14.169Z,99.90
2017-09-26T01:18:41.904Z,99.90
2017-09-26T01:21:10.274Z,99.90
2017-09-26T01:23:38.667Z,99.90
2017-09-26T01:26:06.251Z,99.90
2017-09-26T01:28:33.811Z,99.90
2017-09-26T01:31:01.395Z,99.90
2017-09-26T01:33:29.723Z,99.90
2017-09-26T01:35:57.307Z,99.90
2017-09-26T01:38:24.962Z,99.90
2017-09-26T01:41:04.346Z,99.90
2017-09-26T01:43:31.912Z,99.90
2017-09-26T01:46:00.215Z,99.90
2017-09-26T01:48:27.773Z,99.90
2017-09-26T01:50:55.503Z,99.90
2017-09-26T01:53:23.062Z,99.90
2017-09-26T01:55:51.570Z,99.90
2017-09-26T01:58:30.838Z,99.90
2017-09-26T02:01:00.750Z,99.90
2017-09-26T02:03:29.026Z,99.90
2017-09-26T02:05:56.687Z,99.90
2017-09-26T02:08:27.698Z,99.90
2017-09-26T02:10:55.275Z,99.90
2017-09-26T02:13:22.834Z,99.90
2017-09-26T02:15:50.506Z,99.90
2017-09-26T02:18:19.059Z,99.90
2017-09-26T02:20:47.479Z,99.90
2017-09-26T02:23:15.034Z,99.90
2017-09-26T02:25:42.721Z,99.90
2017-09-26T02:28:11.087Z,99.90
2017-09-26T02:30:39.415Z,99.90
2017-09-26T02:33:07.008Z,99.90
2017-09-26T02:35:34.768Z,99.90
2017-09-26T02:38:02.530Z,99.90
2017-09-26T02:40:30.902Z,99.90
2017-09-26T02:43:01.439Z,99.90
2017-09-26T02:45:29.112Z,99.90
2017-09-26T02:47:56.695Z,99.90
2017-09-26T02:50:25.122Z,99.90
2017-09-26T02:52:52.710Z,99.90
2017-09-26T02:55:20.990Z,99.90
2017-09-26T02:57:48.630Z,99.90
2017-09-26T03:00:19.158Z,99.90
2017-09-26T03:02:46.851Z,99.90
2017-09-26T03:05:15.210Z,99.90
2017-09-26T03:07:42.895Z,99.90
2017-09-26T03:10:11.219Z,99.90
2017-09-26T03:12:38.915Z,99.90
2017-09-26T03:15:06.479Z,99.90
2017-09-26T03:17:34.124Z,99.90
2017-09-26T03:20:01.987Z,99.90
2017-09-26T03:22:29.646Z,99.90
2017-09-26T03:24:57.202Z,99.90
2017-09-26T03:27:24.869Z,99.90
2017-09-26T03:29:52.534Z,99.90
2017-09-26T03:32:20.194Z,99.90
2017-09-26T03:34:47.754Z,99.90
2017-09-26T03:37:15.374Z,99.90
2017-09-26T03:39:42.929Z,99.90
2017-09-26T03:42:10.614Z,99.90
2017-09-26T03:44:38.195Z,99.90
2017-09-26T03:47:05.870Z,99.90
2017-09-26T03:49:33.484Z,99.90
2017-09-26T03:52:01.074Z,99.90
2017-09-26T03:54:28.747Z,99.90
2017-09-26T03:56:57.190Z,99.90
2017-09-26T03:59:25.153Z,99.90
2017-09-26T04:01:52.735Z,99.90
2017-09-26T04:04:20.407Z,99.90
2017-09-26T04:06:47.970Z,99.90
2017-09-26T04:09:15.551Z,99.90
2017-09-26T04:11:44.239Z,99.90
2017-09-26T04:14:11.819Z,99.90
2017-09-26T04:16:39.490Z,99.90
2017-09-26T04:19:07.071Z,99.90
2017-09-26T04:21:34.672Z,99.90
2017-09-26T04:24:02.311Z,99.90
2017-09-26T04:26:29.875Z,99.90
2017-09-26T04:28:57.514Z,99.90
2017-09-26T04:31:25.162Z,99.90
2017-09-26T04:33:53.439Z,99.90
2017-09-26T04:36:21.014Z,99.90
2017-09-26T04:38:51.763Z,99.90
2017-09-26T04:41:19.342Z,99.90
2017-09-26T04:43:47.670Z,99.90
2017-09-26T04:46:15.328Z,99.90
2017-09-26T04:48:42.967Z,99.90
2017-09-26T04:51:11.403Z,99.90
2017-09-26T04:53:39.059Z,99.90
2017-09-26T04:56:06.718Z,99.90
2017-09-26T04:58:34.382Z,99.90
2017-09-26T05:01:01.967Z,99.90
2017-09-26T05:03:30.279Z,99.90
2017-09-26T05:05:57.826Z,99.90
2017-09-26T05:08:25.334Z,99.90
2017-09-26T05:10:52.855Z,99.90
2017-09-26T05:13:20.364Z,99.90
2017-09-26T05:15:47.895Z,99.90
2017-09-26T05:18:15.403Z,99.90
2017-09-26T05:20:44.610Z,99.90
2017-09-26T05:23:12.123Z,99.90
2017-09-26T05:25:39.627Z,99.90
2017-09-26T05:28:07.186Z,99.90
2017-09-26T05:30:34.699Z,99.90
2017-09-26T05:33:02.303Z,99.90
2017-09-26T05:35:29.867Z,99.90
2017-09-26T05:37:57.495Z,99.90
2017-09-26T05:40:25.787Z,99.90
2017-09-26T05:42:54.077Z,99.90
2017-09-26T05:45:21.683Z,99.90
2017-09-26T05:47:50.018Z,99.90
2017-09-26T05:50:18.423Z,99.90
2017-09-26T05:52:45.947Z,99.90
2017-09-26T05:55:13.515Z,99.90
2017-09-26T05:57:41.044Z,99.90
2017-09-26T06:00:09.319Z,99.90
2017-09-26T06:02:37.622Z,99.90
2017-09-26T06:05:05.971Z,99.90
2017-09-26T06:07:34.263Z,99.90
2017-09-26T06:10:03.366Z,99.90
2017-09-26T06:12:30.999Z,99.90
2017-09-26T06:14:58.711Z,99.90
2017-09-26T06:17:26.236Z,99.90
2017-09-26T06:19:54.512Z,99.90
2017-09-26T06:22:22.895Z,99.90
2017-09-26T06:24:52.166Z,99.90
2017-09-26T06:27:19.776Z,99.90
2017-09-26T06:29:47.382Z,99.90
2017-09-26T06:32:14.896Z,99.90
2017-09-26T06:34:42.425Z,99.90
2017-09-26T06:37:10.698Z,99.90
2017-09-26T06:39:39.798Z,99.90
2017-09-26T06:42:08.070Z,99.90
2017-09-26T06:44:36.359Z,99.90
2017-09-26T06:47:04.740Z,99.90
2017-09-26T06:49:33.123Z,99.90
2017-09-26T06:52:00.678Z,99.90
2017-09-26T06:54:28.204Z,99.90
2017-09-26T06:56:55.792Z,99.90
2017-09-26T06:59:23.315Z,99.90
2017-09-26T07:01:50.825Z,99.90
2017-09-26T07:04:19.099Z,99.90
2017-09-26T07:06:46.602Z,99.90
2017-09-26T07:09:14.207Z,99.90
2017-09-26T07:11:41.783Z,99.90
2017-09-26T07:14:09.312Z,99.90
2017-09-26T07:16:37.578Z,99.90
2017-09-26T07:19:05.874Z,99.90
2017-09-26T07:21:33.402Z,99.90
2017-09-26T07:24:01.671Z,99.90
2017-09-26T07:26:29.198Z,99.90
2017-09-26T07:28:56.703Z,99.90
2017-09-26T07:31:24.998Z,99.90
2017-09-26T07:33:52.502Z,99.90
2017-09-26T07:36:20.032Z,99.90
2017-09-26T07:38:47.579Z,99.90
2017-09-26T07:41:15.134Z,99.90
2017-09-26T07:43:42.911Z,99.90
2017-09-26T07:46:10.453Z,99.90
2017-09-26T07:48:38.299Z,99.90
2017-09-26T07:51:06.592Z,99.90
2017-09-26T07:53:34.868Z,99.90
2017-09-26T07:56:03.157Z,99.90
2017-09-26T07:58:30.662Z,99.90
2017-09-26T08:00:58.919Z,99.90
2017-09-26T08:03:28.250Z,99.90
2017-09-26T08:05:57.310Z,99.90
2017-09-26T08:08:25.607Z,99.90
2017-09-26T08:10:53.822Z,99.90
2017-09-26T08:13:22.207Z,99.90
2017-09-26T08:15:49.781Z,99.90
2017-09-26T08:18:17.303Z,99.50
2017-09-26T08:20:45.574Z,99.40
2017-09-26T08:23:13.883Z,99.60
2017-09-26T08:25:41.434Z,99.50
2017-09-26T08:28:09.676Z,99.40
2017-09-26T08:30:37.188Z,99.50
2017-09-26T08:33:04.716Z,99.30
2017-09-26T08:35:32.992Z,98.90
2017-09-26T08:38:00.566Z,98.90
2017-09-26T08:40:28.075Z,99.30
2017-09-26T08:42:55.606Z,98.90
2017-09-26T08:45:26.848Z,98.60
2017-09-26T08:47:54.384Z,97.80
2017-09-26T08:50:21.892Z,98.20
2017-09-26T08:52:49.414Z,97.80
2017-09-26T08:55:16.962Z,97.50
2017-09-26T08:57:44.488Z,97.40
2017-09-26T09:00:12.769Z,97.40
2017-09-26T09:02:41.082Z,96.80
2017-09-26T09:05:08.595Z,96.80
2017-09-26T09:07:36.891Z,96.20
2017-09-26T09:10:05.179Z,96.20
2017-09-26T09:12:32.738Z,96.20
2017-09-26T09:15:00.402Z,96.50
2017-09-26T09:17:28.674Z,95.60
2017-09-26T09:19:56.182Z,95.70
2017-09-26T09:22:23.795Z,95.80
2017-09-26T09:24:51.320Z,95.20
2017-09-26T09:27:19.732Z,95.40
2017-09-26T09:29:47.391Z,95.20
2017-09-26T09:32:15.062Z,95.50
2017-09-26T09:34:42.591Z,95.80
2017-09-26T09:37:10.891Z,94.30
2017-09-26T09:39:38.419Z,94.20
2017-09-26T09:42:06.695Z,94.80
2017-09-26T09:44:34.998Z,94.80
2017-09-26T09:47:02.663Z,94.80
2017-09-26T09:49:30.905Z,95.00
2017-09-26T09:51:58.496Z,95.30
2017-09-26T09:54:26.060Z,94.90
2017-09-26T09:56:53.610Z,94.00
2017-09-26T09:59:21.135Z,93.80
2017-09-26T10:01:48.643Z,93.60
2017-09-26T10:04:16.166Z,92.60
2017-09-26T10:06:44.538Z,94.20
2017-09-26T10:09:12.935Z,94.50
2017-09-26T10:11:40.443Z,94.50
2017-09-26T10:14:08.059Z,93.90
2017-09-26T10:16:35.623Z,92.30
2017-09-26T10:19:03.179Z,92.90
2017-09-26T10:21:30.718Z,92.20
2017-09-26T10:23:59.015Z,92.50
2017-09-26T10:26:26.543Z,92.50
2017-09-26T10:28:54.819Z,91.20
2017-09-26T10:31:23.948Z,91.10
2017-09-26T10:33:52.231Z,90.60
2017-09-26T10:36:19.759Z,90.50
2017-09-26T10:38:48.056Z,90.90
2017-09-26T10:41:15.583Z,90.90
2017-09-26T10:43:43.858Z,90.20
2017-09-26T10:46:11.386Z,89.80
2017-09-26T10:48:38.894Z,89.40
2017-09-26T10:51:08.046Z,89.80
2017-09-26T10:53:35.551Z,89.80
2017-09-26T10:56:03.076Z,90.20
2017-09-26T10:58:30.674Z,88.50
2017-09-26T11:00:58.245Z,90.80
2017-09-26T11:03:26.566Z,91.00
2017-09-26T11:05:54.683Z,90.90
2017-09-26T11:08:22.207Z,91.50
2017-09-26T11:10:49.715Z,91.00
2017-09-26T11:13:17.259Z,91.20
2017-09-26T11:15:44.767Z,90.00
2017-09-26T11:18:12.303Z,89.40
2017-09-26T11:20:39.820Z,90.00
2017-09-26T11:23:08.943Z,89.80
2017-09-26T11:25:36.492Z,89.80
2017-09-26T11:28:04.015Z,89.90
2017-09-26T11:30:31.520Z,90.70
2017-09-26T11:32:59.064Z,89.00
2017-09-26T11:35:26.623Z,88.90
2017-09-26T11:37:54.275Z,88.00
2017-09-26T11:40:21.959Z,90.30
2017-09-26T11:42:49.503Z,88.90
2017-09-26T11:45:17.075Z,89.10
2017-09-26T11:47:44.603Z,91.50
2017-09-26T11:50:12.894Z,91.20
2017-09-26T11:52:40.875Z,91.20
2017-09-26T11:55:08.385Z,90.80
2017-09-26T11:57:36.683Z,90.20
2017-09-26T12:00:04.955Z,90.50
2017-09-26T12:02:33.234Z,89.70
2017-09-26T12:05:01.524Z,91.80
2017-09-26T12:07:29.086Z,91.80
2017-09-26T12:09:56.643Z,90.30
2017-09-26T12:12:24.155Z,90.90
2017-09-26T12:14:51.687Z,90.50
2017-09-26T12:17:19.200Z,90.50
2017-09-26T12:19:47.597Z,90.60
2017-09-26T12:22:15.160Z,90.60
2017-09-26T12:24:42.686Z,90.40
2017-09-26T12:27:11.068Z,90.20
2017-09-26T12:29:39.372Z,89.60
2017-09-26T12:32:06.927Z,89.60
2017-09-26T12:34:34.490Z,87.20
2017-09-26T12:37:02.048Z,90.40
2017-09-26T12:39:29.576Z,90.00
2017-09-26T12:41:57.846Z,88.60
2017-09-26T12:44:25.379Z,88.60
2017-09-26T12:46:52.895Z,89.00
2017-09-26T12:49:22.194Z,88.20
2017-09-26T12:51:49.703Z,85.20
2017-09-26T12:54:17.252Z,84.80
2017-09-26T12:56:44.755Z,82.60
2017-09-26T12:59:13.035Z,84.80
2017-09-26T13:01:41.426Z,83.00
2017-09-26T13:04:09.023Z,83.00
2017-09-26T13:06:36.649Z,85.00
2017-09-26T13:09:04.211Z,82.50
2017-09-26T13:11:31.762Z,82.70
2017-09-26T13:14:00.123Z,84.10
2017-09-26T13:16:28.523Z,83.40
2017-09-26T13:18:56.031Z,83.40
2017-09-26T13:21:23.635Z,86.20
2017-09-26T13:23:51.867Z,84.30
2017-09-26T13:26:19.399Z,84.30
2017-09-26T13:28:46.911Z,85.10
2017-09-26T13:31:15.626Z,84.90
2017-09-26T13:33:43.136Z,84.90
2017-09-26T13:36:11.440Z,84.10
2017-09-26T13:38:39.113Z,84.10
2017-09-26T13:41:06.680Z,85.30
2017-09-26T13:43:34.287Z,83.00
2017-09-26T13:46:01.891Z,84.50
2017-09-26T13:48:29.446Z,85.10
2017-09-26T13:50:57.826Z,84.40
2017-09-26T13:53:25.346Z,84.80
2017-09-26T13:55:52.858Z,84.00
2017-09-26T13:58:21.087Z,83.70
2017-09-26T14:00:49.394Z,85.60
2017-09-26T14:03:16.919Z,85.60
2017-09-26T14:05:44.508Z,82.40
2017-09-26T14:08:12.031Z,81.30
2017-09-26T14:10:39.544Z,82.90
2017-09-26T14:13:07.078Z,80.10
2017-09-26T14:15:35.603Z,77.60
2017-09-26T14:18:03.137Z,78.10
2017-09-26T14:20:30.748Z,81.50
2017-09-26T14:22:58.351Z,77.70
2017-09-26T14:25:25.859Z,77.90
2017-09-26T14:27:53.477Z,77.30
2017-09-26T14:30:20.982Z,76.60
2017-09-26T14:32:48.604Z,77.50
2017-09-26T14:35:17.115Z,78.20
2017-09-26T14:37:44.731Z,76.90
2017-09-26T14:40:12.258Z,78.60
2017-09-26T14:42:40.570Z,86.40
2017-09-26T14:45:08.119Z,86.40
2017-09-26T14:47:35.635Z,87.90
2017-09-26T14:50:03.923Z,90.00
2017-09-26T14:52:33.010Z,90.40
2017-09-26T14:55:01.254Z,90.40
2017-09-26T14:57:28.873Z,91.30
2017-09-26T14:59:57.980Z,92.50
2017-09-26T15:02:25.487Z,92.50
2017-09-26T15:04:53.107Z,92.90
2017-09-26T15:07:21.476Z,93.10
2017-09-26T15:09:49.139Z,93.10
2017-09-26T15:12:16.732Z,93.50
2017-09-26T15:14:44.355Z,94.90
2017-09-26T15:17:11.910Z,96.80
2017-09-26T15:19:39.471Z,98.00
2017-09-26T15:22:06.984Z,98.50
2017-09-26T15:24:35.271Z,99.40
2017-09-26T15:27:03.058Z,99.90
2017-09-26T15:29:32.172Z,99.90
2017-09-26T15:31:59.723Z,99.90
2017-09-26T15:34:27.286Z,99.90
2017-09-26T15:36:54.806Z,99.90
2017-09-26T15:39:22.317Z,99.90
2017-09-26T15:41:49.851Z,99.90
2017-09-26T15:44:18.215Z,99.90
2017-09-26T15:46:46.618Z,99.90
2017-09-26T15:49:14.131Z,99.90
2017-09-26T15:51:41.658Z,99.90
2017-09-26T15:54:09.171Z,99.90
2017-09-26T15:56:37.464Z,99.90
2017-09-26T15:59:05.285Z,99.90
2017-09-26T16:01:32.811Z,99.90
2017-09-26T16:04:00.328Z,99.90
2017-09-26T16:06:28.618Z,99.90
2017-09-26T16:08:56.208Z,99.90
2017-09-26T16:11:23.768Z,99.90
2017-09-26T16:13:51.299Z,99.90
2017-09-26T16:16:18.847Z,99.90
2017-09-26T16:18:47.120Z,99.90
2017-09-26T16:21:15.390Z,99.90
2017-09-26T16:23:43.679Z,99.90
2017-09-26T16:26:11.187Z,99.90
2017-09-26T16:28:38.803Z,99.90
2017-09-26T16:31:06.311Z,99.90
2017-09-26T16:33:33.834Z,99.90
2017-09-26T16:36:01.339Z,99.90
2017-09-26T16:38:29.673Z,99.90
2017-09-26T16:40:57.195Z,99.90
2017-09-26T16:43:25.703Z,99.90
2017-09-26T16:45:53.253Z,99.90
2017-09-26T16:48:20.778Z,99.90
2017-09-26T16:50:48.292Z,99.90
2017-09-26T16:53:15.827Z,99.90
2017-09-26T16:55:43.387Z,99.90
2017-09-26T16:58:10.946Z,99.90
2017-09-26T17:00:38.925Z,99.90
2017-09-26T17:03:06.472Z,99.90
2017-09-26T17:05:34.291Z,99.90
2017-09-26T17:08:01.919Z,99.90
2017-09-26T17:10:29.572Z,99.90
2017-09-26T17:12:57.078Z,99.90
2017-09-26T17:15:24.688Z,99.90
2017-09-26T17:17:52.195Z,99.90
2017-09-26T17:20:19.795Z,99.90
2017-09-26T17:22:47.967Z,99.90
2017-09-26T17:25:16.107Z,99.90
2017-09-26T17:27:43.618Z,99.90
2017-09-26T17:30:11.143Z,99.90
2017-09-26T17:32:39.433Z,99.90
2017-09-26T17:35:06.992Z,99.90
2017-09-26T17:37:34.508Z,99.90
2017-09-26T17:40:02.065Z,99.90
2017-09-26T17:42:29.558Z,99.90
2017-09-26T17:44:57.072Z,99.90
2017-09-26T17:47:24.601Z,99.90
2017-09-26T17:49:52.152Z,99.90
2017-09-26T17:52:19.678Z,99.90
2017-09-26T17:54:47.979Z,99.90
2017-09-26T17:57:15.503Z,99.90
2017-09-26T17:59:43.012Z,99.90
2017-09-26T18:02:11.264Z,99.90
2017-09-26T18:04:38.775Z,99.90
2017-09-26T18:07:06.383Z,99.90
2017-09-26T18:09:34.150Z,99.90
2017-09-26T18:12:01.675Z,99.90
2017-09-26T18:14:29.983Z,99.90
2017-09-26T18:16:57.548Z,99.90
2017-09-26T18:19:25.418Z,99.90
2017-09-26T18:21:53.022Z,99.90
2017-09-26T18:24:20.530Z,99.90
2017-09-26T18:26:48.087Z,99.90
2017-09-26T18:29:15.699Z,99.90
2017-09-26T18:31:43.311Z,99.90
2017-09-26T18:34:10.919Z,99.90
2017-09-26T18:36:39.201Z,99.90
2017-09-26T18:39:06.778Z,99.90
2017-09-26T18:41:35.103Z,99.90
2017-09-26T18:44:02.760Z,99.90
2017-09-26T18:46:30.314Z,99.90
2017-09-26T18:48:57.854Z,99.90
2017-09-26T18:51:26.188Z,99.90
2017-09-26T18:53:53.766Z,99.90
2017-09-26T18:56:22.094Z,99.90
2017-09-26T18:58:49.618Z,99.90
2017-09-26T19:01:17.942Z,99.90
2017-09-26T19:03:45.519Z,99.90
2017-09-26T19:06:13.035Z,99.90
2017-09-26T19:08:40.643Z,99.90
2017-09-26T19:11:08.215Z,99.90
2017-09-26T19:13:36.562Z,99.90
2017-09-26T19:16:04.132Z,99.90
2017-09-26T19:18:31.716Z,99.90
2017-09-26T19:21:00.050Z,99.90
2017-09-26T19:23:27.614Z,99.90
2017-09-26T19:25:55.954Z,99.90
2017-09-26T19:28:23.514Z,99.90
2017-09-26T19:30:51.554Z,99.90
2017-09-26T19:33:19.874Z,99.90
2017-09-26T19:35:47.408Z,99.90
2017-09-26T19:38:15.747Z,99.90
2017-09-26T19:40:43.327Z,99.90
2017-09-26T19:43:11.660Z,99.90
2017-09-26T19:45:39.238Z,99.90
2017-09-26T19:48:06.804Z,99.90
2017-09-26T19:50:34.412Z,99.90
2017-09-26T19:53:01.975Z,99.90
2017-09-26T19:55:29.528Z,99.90
2017-09-26T19:57:57.092Z,99.90
2017-09-26T20:00:24.666Z,99.90
2017-09-26T20:02:52.259Z,99.90
2017-09-26T20:05:19.922Z,99.90
2017-09-26T20:07:47.582Z,99.90
2017-09-26T20:10:15.209Z,99.90
2017-09-26T20:12:42.807Z,99.90
2017-09-26T20:15:10.470Z,99.90
2017-09-26T20:17:38.054Z,99.90
2017-09-26T20:20:05.576Z,99.90
2017-09-26T20:22:33.162Z,99.90
2017-09-26T20:25:02.193Z,99.90
2017-09-26T20:27:29.771Z,99.90
2017-09-26T20:29:57.277Z,99.90
2017-09-26T20:32:25.580Z,99.90
2017-09-26T20:34:53.927Z,99.90
2017-09-26T20:37:22.219Z,99.90
2017-09-26T20:39:50.501Z,99.90
2017-09-26T20:42:18.068Z,99.90
2017-09-26T20:44:45.676Z,99.90
2017-09-26T20:47:13.250Z,99.90
2017-09-26T20:49:40.814Z,99.90
2017-09-26T20:52:09.112Z,99.90
2017-09-26T20:54:36.666Z,99.90
2017-09-26T20:57:04.951Z,99.90
2017-09-26T20:59:32.463Z,99.90
2017-09-26T21:02:00.071Z,99.90
2017-09-26T21:04:27.575Z,99.90
2017-09-26T21:06:55.079Z,99.90
2017-09-26T21:09:22.650Z,99.90
2017-09-26T21:11:50.159Z,99.90
2017-09-26T21:14:18.452Z,99.90
2017-09-26T21:16:46.754Z,99.90
2017-09-26T21:19:14.327Z,99.90
2017-09-26T21:21:41.879Z,99.90
2017-09-26T21:24:09.431Z,99.90
2017-09-26T21:26:36.943Z,99.90
2017-09-26T21:29:04.547Z,99.90
2017-09-26T21:31:32.123Z,99.90
2017-09-26T21:33:59.647Z,99.90
2017-09-26T21:36:27.920Z,99.90
2017-09-26T21:38:56.323Z,99.90
2017-09-26T21:41:23.883Z,99.90
2017-09-26T21:43:51.407Z,99.90
2017-09-26T21:46:20.138Z,99.90
2017-09-26T21:48:47.659Z,99.90
2017-09-26T21:51:16.770Z,99.90
2017-09-26T21:53:45.210Z,99.90
2017-09-26T21:56:12.818Z,99.90
2017-09-26T21:58:40.379Z,99.90
2017-09-26T22:01:08.504Z,99.90
2017-09-26T22:03:36.084Z,99.90
2017-09-26T22:06:04.383Z,99.90
2017-09-26T22:08:31.943Z,99.90
2017-09-26T22:10:59.466Z,99.90
2017-09-26T22:13:26.980Z,99.90
2017-09-26T22:15:55.327Z,99.90
2017-09-26T22:18:23.686Z,99.90
2017-09-26T22:20:52.095Z,99.90
2017-09-26T22:23:19.605Z,99.90
2017-09-26T22:25:47.131Z,99.90
2017-09-26T22:28:14.671Z,99.90
2017-09-26T22:30:42.226Z,99.90
2017-09-26T22:33:09.822Z,99.90
2017-09-26T22:35:37.455Z,99.90
2017-09-26T22:38:05.723Z,99.90
2017-09-26T22:40:33.231Z,99.90
2017-09-26T22:43:00.854Z,99.90
2017-09-26T22:45:28.983Z,99.90
2017-09-26T22:47:56.571Z,99.90
2017-09-26T22:50:24.173Z,99.90
2017-09-26T22:52:51.797Z,99.90
2017-09-26T22:55:19.303Z,99.90
2017-09-26T22:57:46.823Z,99.90
2017-09-26T23:00:14.336Z,99.90
2017-09-26T23:02:42.648Z,99.90
2017-09-26T23:05:10.507Z,99.90
2017-09-26T23:07:38.172Z,99.90
2017-09-26T23:10:06.447Z,99.90
2017-09-26T23:12:34.006Z,99.90
2017-09-26T23:15:01.975Z,99.90
2017-09-26T23:17:29.504Z,99.90
2017-09-26T23:19:57.011Z,99.90
2017-09-26T23:22:24.551Z,99.90
2017-09-26T23:24:52.111Z,99.90
2017-09-26T23:27:19.634Z,99.90
2017-09-26T23:29:47.334Z,99.90
2017-09-26T23:32:14.992Z,99.90
2017-09-26T23:34:43.270Z,99.90
2017-09-26T23:37:10.774Z,99.90
2017-09-26T23:39:38.383Z,99.90
2017-09-26T23:42:05.943Z,99.90
2017-09-26T23:44:33.566Z,99.90
2017-09-26T23:47:02.015Z,99.90
2017-09-26T23:49:29.556Z,99.90
2017-09-26T23:51:57.063Z,99.90
2017-09-26T23:54:24.587Z,99.90
2017-09-26T23:56:52.114Z,99.90
2017-09-26T23:59:19.683Z,99.90
